sensor_id;sensor_type;location;lat;lon;timestamp;pressure;altitude;pressure_sealevel;temperature;humidity
68628;BME280;55611;48.602;9.490;2022-09-30T00:01:05;95960;;;11;62.5
68628;BME280;55611;48.602;9.490;2022-09-30T00:03:36;95970;;;11.1;62.5
68628;BME280;55611;48.602;9.490;2022-09-30T00:06:06;95970;;;11.1;62.5
68628;BME280;55611;48.602;9.490;2022-09-30T00:08:37;95980;;;11.1;62.5
68628;BME280;55611;48.602;9.490;2022-09-30T00:11:09;95980;;;11.2;62.5
68628;BME280;55611;48.602;9.490;2022-09-30T00:13:38;95980;;;11.3;62.5
68628;BME280;55611;48.602;9.490;2022-09-30T00:16:09;95980;;;11.4;62.5
68628;BME280;55611;48.602;9.490;2022-09-30T00:18:39;95980;;;11.4;62.5
68628;BME280;55611;48.602;9.490;2022-09-30T00:21:10;95980;;;11.4;62.5
68628;BME280;55611;48.602;9.490;2022-09-30T00:23:40;95980;;;11.4;62.5
68628;BME280;55611;48.602;9.490;2022-09-30T00:26:12;95980;;;11.3;62.5
68628;BME280;55611;48.602;9.490;2022-09-30T00:28:41;95980;;;11.2;62.5
68628;BME280;55611;48.602;9.490;2022-09-30T00:31:13;95980;;;11.2;62.5
68628;BME280;55611;48.602;9.490;2022-09-30T00:33:42;95980;;;11.2;62.5
68628;BME280;55611;48.602;9.490;2022-09-30T00:36:12;95980;;;11.2;62.5
68628;BME280;55611;48.602;9.490;2022-09-30T00:38:43;95990;;;11.1;62.5
68628;BME280;55611;48.602;9.490;2022-09-30T00:41:13;95990;;;11;63
68628;BME280;55611;48.602;9.490;2022-09-30T00:43:45;95990;;;11;63
68628;BME280;55611;48.602;9.490;2022-09-30T00:46:16;96000;;;11.1;63
68628;BME280;55611;48.602;9.490;2022-09-30T00:48:46;96000;;;11.1;62.5
68628;BME280;55611;48.602;9.490;2022-09-30T00:51:15;96000;;;11;62.5
68628;BME280;55611;48.602;9.490;2022-09-30T00:53:49;96000;;;11;62.5
68628;BME280;55611;48.602;9.490;2022-09-30T00:56:19;96000;;;10.9;62.5
68628;BME280;55611;48.602;9.490;2022-09-30T00:58:49;96000;;;10.9;62.5
68628;BME280;55611;48.602;9.490;2022-09-30T01:01:17;96000;;;11;62.5
68628;BME280;55611;48.602;9.490;2022-09-30T01:03:50;96000;;;11;62.5
68628;BME280;55611;48.602;9.490;2022-09-30T01:06:20;96000;;;11.1;63
68628;BME280;55611;48.602;9.490;2022-09-30T01:08:49;96000;;;11.1;63
68628;BME280;55611;48.602;9.490;2022-09-30T01:11:20;96000;;;11.2;63
68628;BME280;55611;48.602;9.490;2022-09-30T01:13:51;96000;;;11.2;63
68628;BME280;55611;48.602;9.490;2022-09-30T01:16:28;96010;;;11.3;63
68628;BME280;55611;48.602;9.490;2022-09-30T01:21:29;96010;;;11.2;63
68628;BME280;55611;48.602;9.490;2022-09-30T01:26:31;96010;;;11.2;63
68628;BME280;55611;48.602;9.490;2022-09-30T01:31:28;96010;;;11.2;63
68628;BME280;55611;48.602;9.490;2022-09-30T01:33:59;96010;;;11.1;63
68628;BME280;55611;48.602;9.490;2022-09-30T01:36:28;96010;;;11.1;63
68628;BME280;55611;48.602;9.490;2022-09-30T01:40:02;96000;;;11.1;63
68628;BME280;55611;48.602;9.490;2022-09-30T01:41:33;96000;;;11.1;62.5
68628;BME280;55611;48.602;9.490;2022-09-30T01:44:00;96000;;;11;62.5
68628;BME280;55611;48.602;9.490;2022-09-30T01:46:30;96000;;;10.9;62.5
68628;BME280;55611;48.602;9.490;2022-09-30T01:49:05;96010;;;10.9;62.5
68628;BME280;55611;48.602;9.490;2022-09-30T01:54:00;96010;;;10.9;62.5
68628;BME280;55611;48.602;9.490;2022-09-30T01:56:33;96010;;;10.9;62.5
68628;BME280;55611;48.602;9.490;2022-09-30T02:01:32;96010;;;10.7;62.5
68628;BME280;55611;48.602;9.490;2022-09-30T02:04:02;96020;;;10.7;62.5
68628;BME280;55611;48.602;9.490;2022-09-30T02:06:34;96020;;;10.8;62.5
68628;BME280;55611;48.602;9.490;2022-09-30T02:09:03;96030;;;10.7;62.5
68628;BME280;55611;48.602;9.490;2022-09-30T02:11:32;96030;;;10.7;62.5
68628;BME280;55611;48.602;9.490;2022-09-30T02:14:04;96030;;;10.6;62.5
68628;BME280;55611;48.602;9.490;2022-09-30T02:16:36;96040;;;10.6;62.5
68628;BME280;55611;48.602;9.490;2022-09-30T02:19:07;96040;;;10.5;62.5
68628;BME280;55611;48.602;9.490;2022-09-30T02:21:35;96040;;;10.4;62.5
68628;BME280;55611;48.602;9.490;2022-09-30T02:24:06;96040;;;10.4;62.5
68628;BME280;55611;48.602;9.490;2022-09-30T02:26:36;96030;;;10.4;62.5
68628;BME280;55611;48.602;9.490;2022-09-30T02:29:22;96030;;;10.4;62.5
68628;BME280;55611;48.602;9.490;2022-09-30T02:31:37;96020;;;10.4;62.5
68628;BME280;55611;48.602;9.490;2022-09-30T02:34:08;96020;;;10.4;62.5
68628;BME280;55611;48.602;9.490;2022-09-30T02:36:38;96020;;;10.4;62.5
68628;BME280;55611;48.602;9.490;2022-09-30T02:39:09;96020;;;10.4;62.5
68628;BME280;55611;48.602;9.490;2022-09-30T02:41:41;96020;;;10.4;62.5
68628;BME280;55611;48.602;9.490;2022-09-30T02:44:09;96030;;;10.4;62.5
68628;BME280;55611;48.602;9.490;2022-09-30T02:46:45;96030;;;10.4;62.5
68628;BME280;55611;48.602;9.490;2022-09-30T02:49:14;96030;;;10.3;62.5
68628;BME280;55611;48.602;9.490;2022-09-30T02:51:44;96040;;;10.3;62.5
68628;BME280;55611;48.602;9.490;2022-09-30T02:54:14;96040;;;10.3;62.5
68628;BME280;55611;48.602;9.490;2022-09-30T02:56:45;96040;;;10.2;62.5
68628;BME280;55611;48.602;9.490;2022-09-30T02:59:12;96040;;;10.2;62.5
68628;BME280;55611;48.602;9.490;2022-09-30T03:01:42;96040;;;10.2;62.5
68628;BME280;55611;48.602;9.490;2022-09-30T03:04:14;96040;;;10.2;62.5
68628;BME280;55611;48.602;9.490;2022-09-30T03:06:43;96050;;;10.1;62.5
68628;BME280;55611;48.602;9.490;2022-09-30T03:09:14;96060;;;10.1;62.5
68628;BME280;55611;48.602;9.490;2022-09-30T03:11:44;96060;;;10;62.5
68628;BME280;55611;48.602;9.490;2022-09-30T03:14:23;96060;;;9.9;63
68628;BME280;55611;48.602;9.490;2022-09-30T03:16:49;96070;;;10;63
68628;BME280;55611;48.602;9.490;2022-09-30T03:21:53;96070;;;10.1;62.5
68628;BME280;55611;48.602;9.490;2022-09-30T03:26:51;96080;;;10;62.5
68628;BME280;55611;48.602;9.490;2022-09-30T03:29:21;96080;;;9.9;62.5
68628;BME280;55611;48.602;9.490;2022-09-30T03:34:24;96080;;;9.8;62.5
68628;BME280;55611;48.602;9.490;2022-09-30T03:36:52;96080;;;9.8;62.5
68628;BME280;55611;48.602;9.490;2022-09-30T03:39:22;96080;;;9.8;62.5
68628;BME280;55611;48.602;9.490;2022-09-30T03:41:53;96080;;;9.8;62.5
68628;BME280;55611;48.602;9.490;2022-09-30T03:44:23;96080;;;9.8;62.5
68628;BME280;55611;48.602;9.490;2022-09-30T03:46:53;96090;;;9.7;62.5
68628;BME280;55611;48.602;9.490;2022-09-30T03:49:23;96090;;;9.7;62.5
68628;BME280;55611;48.602;9.490;2022-09-30T03:51:53;96080;;;9.7;62.5
68628;BME280;55611;48.602;9.490;2022-09-30T03:54:23;96090;;;9.7;62.5
68628;BME280;55611;48.602;9.490;2022-09-30T03:56:53;96090;;;9.7;62.5
68628;BME280;55611;48.602;9.490;2022-09-30T03:59:25;96090;;;9.6;62.5
68628;BME280;55611;48.602;9.490;2022-09-30T04:01:55;96100;;;9.7;62.5
68628;BME280;55611;48.602;9.490;2022-09-30T04:04:25;96100;;;9.7;62.5
68628;BME280;55611;48.602;9.490;2022-09-30T04:06:55;96100;;;9.7;62.5
68628;BME280;55611;48.602;9.490;2022-09-30T04:09:26;96100;;;9.7;62.5
68628;BME280;55611;48.602;9.490;2022-09-30T04:11:57;96100;;;9.8;62.5
68628;BME280;55611;48.602;9.490;2022-09-30T04:14:27;96100;;;9.9;62.5
68628;BME280;55611;48.602;9.490;2022-09-30T04:16:58;96100;;;9.9;62.5
68628;BME280;55611;48.602;9.490;2022-09-30T04:19:28;96110;;;9.9;62.5
68628;BME280;55611;48.602;9.490;2022-09-30T04:21:59;96110;;;9.8;62.5
68628;BME280;55611;48.602;9.490;2022-09-30T04:24:29;96110;;;9.9;62.5
68628;BME280;55611;48.602;9.490;2022-09-30T04:27:00;96110;;;9.9;62.5
68628;BME280;55611;48.602;9.490;2022-09-30T04:29:30;96120;;;9.8;62.5
68628;BME280;55611;48.602;9.490;2022-09-30T04:32:01;96130;;;9.7;62.5
68628;BME280;55611;48.602;9.490;2022-09-30T04:34:31;96130;;;9.7;62.5
68628;BME280;55611;48.602;9.490;2022-09-30T04:37:02;96140;;;9.6;62.5
68628;BME280;55611;48.602;9.490;2022-09-30T04:39:32;96140;;;9.5;62.5
68628;BME280;55611;48.602;9.490;2022-09-30T04:42:03;96140;;;9.5;62.5
68628;BME280;55611;48.602;9.490;2022-09-30T04:44:33;96140;;;9.5;62.5
68628;BME280;55611;48.602;9.490;2022-09-30T04:47:04;96150;;;9.4;62.5
68628;BME280;55611;48.602;9.490;2022-09-30T04:49:34;96150;;;9.3;62.5
68628;BME280;55611;48.602;9.490;2022-09-30T04:52:05;96150;;;9.3;62
68628;BME280;55611;48.602;9.490;2022-09-30T04:54:35;96160;;;9.2;62
68628;BME280;55611;48.602;9.490;2022-09-30T04:57:06;96160;;;9.2;62.5
68628;BME280;55611;48.602;9.490;2022-09-30T04:59:36;96160;;;9.1;62.5
68628;BME280;55611;48.602;9.490;2022-09-30T05:02:07;96150;;;9.1;62
68628;BME280;55611;48.602;9.490;2022-09-30T05:04:37;96150;;;9.1;62
68628;BME280;55611;48.602;9.490;2022-09-30T05:07:08;96150;;;9.1;62.5
68628;BME280;55611;48.602;9.490;2022-09-30T05:09:38;96150;;;9.1;62.5
68628;BME280;55611;48.602;9.490;2022-09-30T05:12:09;96160;;;9.1;62.5
68628;BME280;55611;48.602;9.490;2022-09-30T05:14:40;96160;;;9.1;62
68628;BME280;55611;48.602;9.490;2022-09-30T05:17:10;96160;;;9.1;62.5
68628;BME280;55611;48.602;9.490;2022-09-30T05:19:40;96170;;;9;62.5
68628;BME280;55611;48.602;9.490;2022-09-30T05:22:11;96170;;;9;62.5
68628;BME280;55611;48.602;9.490;2022-09-30T05:24:41;96170;;;9.1;62
68628;BME280;55611;48.602;9.490;2022-09-30T05:27:12;96180;;;9;62.5
68628;BME280;55611;48.602;9.490;2022-09-30T05:29:43;96170;;;8.9;62.5
68628;BME280;55611;48.602;9.490;2022-09-30T05:32:13;96180;;;8.9;62.5
68628;BME280;55611;48.602;9.490;2022-09-30T05:34:44;96180;;;8.9;62.5
68628;BME280;55611;48.602;9.490;2022-09-30T05:37:14;96180;;;8.9;62.5
68628;BME280;55611;48.602;9.490;2022-09-30T05:39:45;96190;;;8.9;62.5
68628;BME280;55611;48.602;9.490;2022-09-30T05:42:15;96190;;;8.9;62.5
68628;BME280;55611;48.602;9.490;2022-09-30T05:47:16;96180;;;9;62.5
68628;BME280;55611;48.602;9.490;2022-09-30T05:49:47;96180;;;9;62.5
68628;BME280;55611;48.602;9.490;2022-09-30T05:52:17;96180;;;9.1;62.5
68628;BME280;55611;48.602;9.490;2022-09-30T05:54:48;96180;;;9.2;62.5
68628;BME280;55611;48.602;9.490;2022-09-30T05:57:18;96180;;;9.3;62.5
68628;BME280;55611;48.602;9.490;2022-09-30T05:59:49;96180;;;9.4;62.5
68628;BME280;55611;48.602;9.490;2022-09-30T06:02:19;96190;;;9.5;62.5
68628;BME280;55611;48.602;9.490;2022-09-30T06:04:50;96190;;;9.6;62.5
68628;BME280;55611;48.602;9.490;2022-09-30T06:07:20;96200;;;9.7;62.5
68628;BME280;55611;48.602;9.490;2022-09-30T06:09:51;96210;;;9.8;62.5
68628;BME280;55611;48.602;9.490;2022-09-30T06:12:21;96210;;;9.8;63
68628;BME280;55611;48.602;9.490;2022-09-30T06:14:52;96220;;;9.8;63
68628;BME280;55611;48.602;9.490;2022-09-30T06:17:22;96220;;;9.9;63
68628;BME280;55611;48.602;9.490;2022-09-30T06:19:53;96220;;;9.9;63
68628;BME280;55611;48.602;9.490;2022-09-30T06:22:23;96230;;;10;63
68628;BME280;55611;48.602;9.490;2022-09-30T06:24:54;96240;;;10.1;63
68628;BME280;55611;48.602;9.490;2022-09-30T06:27:24;96240;;;10.2;63
68628;BME280;55611;48.602;9.490;2022-09-30T06:29:55;96250;;;10.2;63
68628;BME280;55611;48.602;9.490;2022-09-30T06:32:25;96240;;;10.2;63
68628;BME280;55611;48.602;9.490;2022-09-30T06:34:56;96240;;;10.3;63
68628;BME280;55611;48.602;9.490;2022-09-30T06:37:26;96240;;;10.4;63
68628;BME280;55611;48.602;9.490;2022-09-30T06:39:57;96240;;;10.5;63
68628;BME280;55611;48.602;9.490;2022-09-30T06:42:27;96240;;;10.6;63
68628;BME280;55611;48.602;9.490;2022-09-30T06:44:58;96250;;;10.7;63
68628;BME280;55611;48.602;9.490;2022-09-30T06:47:28;96250;;;10.8;63
68628;BME280;55611;48.602;9.490;2022-09-30T06:49:59;96250;;;10.8;63
68628;BME280;55611;48.602;9.490;2022-09-30T06:52:30;96250;;;11;63
68628;BME280;55611;48.602;9.490;2022-09-30T06:55:00;96260;;;11;63
68628;BME280;55611;48.602;9.490;2022-09-30T06:57:31;96260;;;11.2;63
68628;BME280;55611;48.602;9.490;2022-09-30T07:00:01;96270;;;11.4;63
68628;BME280;55611;48.602;9.490;2022-09-30T07:02:32;96270;;;11.5;63
68628;BME280;55611;48.602;9.490;2022-09-30T07:05:02;96280;;;11.5;63.5
68628;BME280;55611;48.602;9.490;2022-09-30T07:07:33;96280;;;11.3;63.5
68628;BME280;55611;48.602;9.490;2022-09-30T07:10:03;96280;;;11.2;63.5
68628;BME280;55611;48.602;9.490;2022-09-30T07:12:34;96270;;;11.2;63.5
68628;BME280;55611;48.602;9.490;2022-09-30T07:15:04;96280;;;11.2;63.5
68628;BME280;55611;48.602;9.490;2022-09-30T07:17:35;96290;;;11.3;63.5
68628;BME280;55611;48.602;9.490;2022-09-30T07:20:05;96290;;;11.4;63.5
68628;BME280;55611;48.602;9.490;2022-09-30T07:22:36;96280;;;11.4;63.5
68628;BME280;55611;48.602;9.490;2022-09-30T07:25:06;96280;;;11.5;63.5
68628;BME280;55611;48.602;9.490;2022-09-30T07:27:37;96280;;;11.6;63.5
68628;BME280;55611;48.602;9.490;2022-09-30T07:30:07;96280;;;11.6;63.5
68628;BME280;55611;48.602;9.490;2022-09-30T07:32:38;96280;;;11.6;63.5
68628;BME280;55611;48.602;9.490;2022-09-30T07:35:08;96290;;;11.6;63.5
68628;BME280;55611;48.602;9.490;2022-09-30T07:37:39;96290;;;11.6;63.5
68628;BME280;55611;48.602;9.490;2022-09-30T07:40:09;96300;;;11.6;63.5
68628;BME280;55611;48.602;9.490;2022-09-30T07:42:40;96310;;;11.6;63.5
68628;BME280;55611;48.602;9.490;2022-09-30T07:45:10;96310;;;11.6;63.5
68628;BME280;55611;48.602;9.490;2022-09-30T07:47:41;96310;;;11.6;63.5
68628;BME280;55611;48.602;9.490;2022-09-30T07:50:11;96310;;;11.7;63.5
68628;BME280;55611;48.602;9.490;2022-09-30T07:52:42;96320;;;11.7;63.5
68628;BME280;55611;48.602;9.490;2022-09-30T07:55:12;96310;;;11.8;63.5
68628;BME280;55611;48.602;9.490;2022-09-30T07:57:43;96310;;;11.9;63.5
68628;BME280;55611;48.602;9.490;2022-09-30T08:00:13;96310;;;12;63.5
68628;BME280;55611;48.602;9.490;2022-09-30T08:02:44;96320;;;12;63.5
68628;BME280;55611;48.602;9.490;2022-09-30T08:05:14;96320;;;12.1;63.5
68628;BME280;55611;48.602;9.490;2022-09-30T08:07:45;96320;;;12.2;63.5
68628;BME280;55611;48.602;9.490;2022-09-30T08:10:15;96330;;;12.3;63.5
68628;BME280;55611;48.602;9.490;2022-09-30T08:12:46;96320;;;12.5;63.5
68628;BME280;55611;48.602;9.490;2022-09-30T08:15:17;96330;;;12.6;63.5
68628;BME280;55611;48.602;9.490;2022-09-30T08:17:47;96330;;;12.7;63.5
68628;BME280;55611;48.602;9.490;2022-09-30T08:20:18;96340;;;12.9;63.5
68628;BME280;55611;48.602;9.490;2022-09-30T08:22:52;96340;;;12.9;64
68628;BME280;55611;48.602;9.490;2022-09-30T08:25:19;96340;;;13;64
68628;BME280;55611;48.602;9.490;2022-09-30T08:27:49;96340;;;13.1;64
68628;BME280;55611;48.602;9.490;2022-09-30T08:30:20;96340;;;13.1;64
68628;BME280;55611;48.602;9.490;2022-09-30T08:32:50;96340;;;13.2;64
68628;BME280;55611;48.602;9.490;2022-09-30T08:35:21;96340;;;13.4;64
68628;BME280;55611;48.602;9.490;2022-09-30T08:37:51;96340;;;13.5;64
68628;BME280;55611;48.602;9.490;2022-09-30T08:40:22;96340;;;13.5;64
68628;BME280;55611;48.602;9.490;2022-09-30T08:43:02;96350;;;13.4;64
68628;BME280;55611;48.602;9.490;2022-09-30T08:45:34;96350;;;13.5;64
68628;BME280;55611;48.602;9.490;2022-09-30T08:50:29;96350;;;13.5;64
68628;BME280;55611;48.602;9.490;2022-09-30T08:52:57;96350;;;13.6;64
68628;BME280;55611;48.602;9.490;2022-09-30T08:55:26;96360;;;13.7;64
68628;BME280;55611;48.602;9.490;2022-09-30T08:57:55;96360;;;13.8;64
68628;BME280;55611;48.602;9.490;2022-09-30T09:00:26;96360;;;13.8;64
68628;BME280;55611;48.602;9.490;2022-09-30T09:02:57;96370;;;13.9;64
68628;BME280;55611;48.602;9.490;2022-09-30T09:05:30;96360;;;14;64
68628;BME280;55611;48.602;9.490;2022-09-30T09:08:00;96360;;;13.9;64
68628;BME280;55611;48.602;9.490;2022-09-30T09:11:02;96370;;;13.9;64
68628;BME280;55611;48.602;9.490;2022-09-30T09:13:02;96370;;;13.9;64
68628;BME280;55611;48.602;9.490;2022-09-30T09:20:31;96370;;;14;63.5
68628;BME280;55611;48.602;9.490;2022-09-30T09:23:01;96370;;;14;63.5
68628;BME280;55611;48.602;9.490;2022-09-30T09:25:31;96380;;;13.9;63.5
68628;BME280;55611;48.602;9.490;2022-09-30T09:28:02;96380;;;13.8;63.5
68628;BME280;55611;48.602;9.490;2022-09-30T09:30:34;96380;;;13.8;63.5
68628;BME280;55611;48.602;9.490;2022-09-30T09:33:09;96380;;;13.8;63.5
68628;BME280;55611;48.602;9.490;2022-09-30T09:36:07;96370;;;13.8;63.5
68628;BME280;55611;48.602;9.490;2022-09-30T09:38:08;96380;;;13.9;63.5
68628;BME280;55611;48.602;9.490;2022-09-30T09:40:40;96380;;;14;63.5
68628;BME280;55611;48.602;9.490;2022-09-30T09:45:38;96380;;;14.2;64
68628;BME280;55611;48.602;9.490;2022-09-30T09:48:06;96380;;;14.3;64
68628;BME280;55611;48.602;9.490;2022-09-30T09:50:39;96380;;;14.3;64
68628;BME280;55611;48.602;9.490;2022-09-30T09:53:18;96380;;;14.4;64
68628;BME280;55611;48.602;9.490;2022-09-30T09:55:37;96380;;;14.5;64
68628;BME280;55611;48.602;9.490;2022-09-30T09:58:09;96380;;;14.6;64
68628;BME280;55611;48.602;9.490;2022-09-30T10:00:38;96390;;;14.7;64
68628;BME280;55611;48.602;9.490;2022-09-30T10:03:17;96390;;;14.8;64
68628;BME280;55611;48.602;9.490;2022-09-30T10:05:39;96380;;;14.9;64
68628;BME280;55611;48.602;9.490;2022-09-30T10:08:13;96380;;;15.1;64
68628;BME280;55611;48.602;9.490;2022-09-30T10:10:42;96380;;;15.1;64
68628;BME280;55611;48.602;9.490;2022-09-30T10:13:14;96380;;;15;64
68628;BME280;55611;48.602;9.490;2022-09-30T10:15:41;96380;;;15;64
68628;BME280;55611;48.602;9.490;2022-09-30T10:18:15;96380;;;15;64
68628;BME280;55611;48.602;9.490;2022-09-30T10:20:48;96380;;;15.1;64
68628;BME280;55611;48.602;9.490;2022-09-30T10:23:22;96390;;;15.1;64
68628;BME280;55611;48.602;9.490;2022-09-30T10:25:53;96390;;;15.2;64
68628;BME280;55611;48.602;9.490;2022-09-30T10:28:22;96390;;;15.3;64
68628;BME280;55611;48.602;9.490;2022-09-30T10:30:48;96390;;;15.3;64
68628;BME280;55611;48.602;9.490;2022-09-30T10:33:23;96390;;;15.4;64
68628;BME280;55611;48.602;9.490;2022-09-30T10:35:49;96390;;;15.6;64
68628;BME280;55611;48.602;9.490;2022-09-30T10:38:16;96390;;;15.6;64
68628;BME280;55611;48.602;9.490;2022-09-30T10:40:48;96390;;;15.7;64
68628;BME280;55611;48.602;9.490;2022-09-30T10:43:19;96390;;;15.8;64
68628;BME280;55611;48.602;9.490;2022-09-30T10:45:47;96390;;;16;64
68628;BME280;55611;48.602;9.490;2022-09-30T10:48:18;96390;;;16;64.5
68628;BME280;55611;48.602;9.490;2022-09-30T10:50:49;96390;;;16;64.5
68628;BME280;55611;48.602;9.490;2022-09-30T10:53:20;96400;;;16;64
68628;BME280;55611;48.602;9.490;2022-09-30T10:55:50;96400;;;16.1;64
68628;BME280;55611;48.602;9.490;2022-09-30T10:58:24;96400;;;16.2;64
68628;BME280;55611;48.602;9.490;2022-09-30T11:00:52;96400;;;16.2;64
68628;BME280;55611;48.602;9.490;2022-09-30T11:03:24;96400;;;16.2;64
68628;BME280;55611;48.602;9.490;2022-09-30T11:05:52;96390;;;16.2;64
68628;BME280;55611;48.602;9.490;2022-09-30T11:08:32;96400;;;16.2;64
68628;BME280;55611;48.602;9.490;2022-09-30T11:10:58;96400;;;16.2;64
68628;BME280;55611;48.602;9.490;2022-09-30T11:13:58;96400;;;16.2;64
68628;BME280;55611;48.602;9.490;2022-09-30T11:15:56;96390;;;16.3;64
68628;BME280;55611;48.602;9.490;2022-09-30T11:18:28;96400;;;16.4;64
68628;BME280;55611;48.602;9.490;2022-09-30T11:20:56;96400;;;16.4;64
68628;BME280;55611;48.602;9.490;2022-09-30T11:23:34;96400;;;16.5;64
68628;BME280;55611;48.602;9.490;2022-09-30T11:26:00;96400;;;16.5;64
68628;BME280;55611;48.602;9.490;2022-09-30T11:28:34;96390;;;16.4;64
68628;BME280;55611;48.602;9.490;2022-09-30T11:31:07;96390;;;16.4;64
68628;BME280;55611;48.602;9.490;2022-09-30T11:33:32;96390;;;16.5;64
68628;BME280;55611;48.602;9.490;2022-09-30T11:39:03;96400;;;16.5;64
68628;BME280;55611;48.602;9.490;2022-09-30T11:41:02;96390;;;16.5;64
68628;BME280;55611;48.602;9.490;2022-09-30T11:43:34;96390;;;16.5;64
68628;BME280;55611;48.602;9.490;2022-09-30T11:46:05;96400;;;16.5;64
68628;BME280;55611;48.602;9.490;2022-09-30T11:51:04;96400;;;16.6;64
68628;BME280;55611;48.602;9.490;2022-09-30T11:53:41;96390;;;16.6;64
68628;BME280;55611;48.602;9.490;2022-09-30T11:56:11;96390;;;16.6;64
68628;BME280;55611;48.602;9.490;2022-09-30T11:58:35;96390;;;16.6;64
68628;BME280;55611;48.602;9.490;2022-09-30T12:01:08;96390;;;16.5;64
68628;BME280;55611;48.602;9.490;2022-09-30T12:03:34;96390;;;16.5;64
68628;BME280;55611;48.602;9.490;2022-09-30T12:06:08;96390;;;16.7;64
68628;BME280;55611;48.602;9.490;2022-09-30T12:08:35;96390;;;16.8;64
68628;BME280;55611;48.602;9.490;2022-09-30T12:11:07;96380;;;16.9;64
68628;BME280;55611;48.602;9.490;2022-09-30T12:13:37;96380;;;16.8;64
68628;BME280;55611;48.602;9.490;2022-09-30T12:16:08;96380;;;16.9;64
68628;BME280;55611;48.602;9.490;2022-09-30T12:18:38;96380;;;17;64
68628;BME280;55611;48.602;9.490;2022-09-30T12:21:17;96380;;;17.2;64
68628;BME280;55611;48.602;9.490;2022-09-30T12:23:40;96380;;;17.1;64
68628;BME280;55611;48.602;9.490;2022-09-30T12:26:08;96390;;;17.1;64
68628;BME280;55611;48.602;9.490;2022-09-30T12:28:40;96390;;;17;64
68628;BME280;55611;48.602;9.490;2022-09-30T12:32:16;96390;;;17;64
68628;BME280;55611;48.602;9.490;2022-09-30T12:33:59;96390;;;17;64
68628;BME280;55611;48.602;9.490;2022-09-30T12:36:15;96390;;;16.9;63.5
68628;BME280;55611;48.602;9.490;2022-09-30T12:38:51;96400;;;16.9;63.5
68628;BME280;55611;48.602;9.490;2022-09-30T12:41:17;96390;;;16.8;63.5
68628;BME280;55611;48.602;9.490;2022-09-30T12:44:22;96390;;;16.7;64
68628;BME280;55611;48.602;9.490;2022-09-30T12:48:45;96390;;;16.7;63.5
68628;BME280;55611;48.602;9.490;2022-09-30T12:51:22;96400;;;16.8;63.5
68628;BME280;55611;48.602;9.490;2022-09-30T12:53:44;96400;;;16.8;63.5
68628;BME280;55611;48.602;9.490;2022-09-30T12:56:14;96390;;;16.8;63.5
68628;BME280;55611;48.602;9.490;2022-09-30T12:58:48;96390;;;16.9;63.5
68628;BME280;55611;48.602;9.490;2022-09-30T13:01:17;96390;;;17.1;63.5
68628;BME280;55611;48.602;9.490;2022-09-30T13:03:48;96390;;;17.2;64
68628;BME280;55611;48.602;9.490;2022-09-30T13:06:18;96390;;;17.3;64
68628;BME280;55611;48.602;9.490;2022-09-30T13:09:04;96390;;;17.3;64
68628;BME280;55611;48.602;9.490;2022-09-30T13:13:56;96390;;;17.3;64
68628;BME280;55611;48.602;9.490;2022-09-30T13:16:46;96390;;;17.4;64
68628;BME280;55611;48.602;9.490;2022-09-30T13:18:57;96390;;;17.5;64
68628;BME280;55611;48.602;9.490;2022-09-30T13:21:20;96390;;;17.5;64
68628;BME280;55611;48.602;9.490;2022-09-30T13:23:52;96390;;;17.4;64
68628;BME280;55611;48.602;9.490;2022-09-30T13:26:30;96390;;;17.4;63.5
68628;BME280;55611;48.602;9.490;2022-09-30T13:28:52;96400;;;17.4;63.5
68628;BME280;55611;48.602;9.490;2022-09-30T13:31:22;96400;;;17.3;63.5
68628;BME280;55611;48.602;9.490;2022-09-30T13:36:24;96400;;;17.4;63.5
68628;BME280;55611;48.602;9.490;2022-09-30T13:41:24;96400;;;17.6;63.5
68628;BME280;55611;48.602;9.490;2022-09-30T13:44:01;96400;;;17.6;63.5
68628;BME280;55611;48.602;9.490;2022-09-30T13:46:27;96400;;;17.6;63.5
68628;BME280;55611;48.602;9.490;2022-09-30T13:48:56;96400;;;17.6;63.5
68628;BME280;55611;48.602;9.490;2022-09-30T13:51:27;96390;;;17.6;63.5
68628;BME280;55611;48.602;9.490;2022-09-30T13:53:57;96390;;;17.6;63.5
68628;BME280;55611;48.602;9.490;2022-09-30T13:56:28;96400;;;17.6;63.5
68628;BME280;55611;48.602;9.490;2022-09-30T13:59:16;96400;;;17.5;64
68628;BME280;55611;48.602;9.490;2022-09-30T14:01:33;96400;;;17.6;64
68628;BME280;55611;48.602;9.490;2022-09-30T14:09:02;96400;;;17.6;63.5
68628;BME280;55611;48.602;9.490;2022-09-30T14:11:33;96410;;;17.6;63.5
68628;BME280;55611;48.602;9.490;2022-09-30T14:14:05;96410;;;17.5;63.5
68628;BME280;55611;48.602;9.490;2022-09-30T14:16:35;96410;;;17.5;63.5
68628;BME280;55611;48.602;9.490;2022-09-30T14:19:04;96410;;;17.4;63.5
68628;BME280;55611;48.602;9.490;2022-09-30T14:21:33;96410;;;17.4;63.5
68628;BME280;55611;48.602;9.490;2022-09-30T14:24:08;96420;;;17.4;63
68628;BME280;55611;48.602;9.490;2022-09-30T14:26:39;96420;;;17.4;63
68628;BME280;55611;48.602;9.490;2022-09-30T14:29:10;96420;;;17.4;63
68628;BME280;55611;48.602;9.490;2022-09-30T14:34:04;96410;;;17.5;63.5
68628;BME280;55611;48.602;9.490;2022-09-30T14:36:35;96420;;;17.5;63.5
68628;BME280;55611;48.602;9.490;2022-09-30T14:39:05;96420;;;17.6;63.5
68628;BME280;55611;48.602;9.490;2022-09-30T14:41:36;96430;;;17.7;63.5
68628;BME280;55611;48.602;9.490;2022-09-30T14:44:10;96430;;;17.7;63.5
68628;BME280;55611;48.602;9.490;2022-09-30T14:46:37;96430;;;17.8;63.5
68628;BME280;55611;48.602;9.490;2022-09-30T14:49:08;96430;;;17.8;63.5
68628;BME280;55611;48.602;9.490;2022-09-30T14:51:39;96430;;;17.8;63.5
68628;BME280;55611;48.602;9.490;2022-09-30T14:54:14;96420;;;17.9;63.5
68628;BME280;55611;48.602;9.490;2022-09-30T14:56:39;96420;;;17.9;63.5
68628;BME280;55611;48.602;9.490;2022-09-30T14:59:15;96420;;;17.9;63.5
68628;BME280;55611;48.602;9.490;2022-09-30T15:01:40;96420;;;17.9;63.5
68628;BME280;55611;48.602;9.490;2022-09-30T15:04:12;96420;;;17.9;63.5
68628;BME280;55611;48.602;9.490;2022-09-30T15:06:42;96420;;;17.9;63.5
68628;BME280;55611;48.602;9.490;2022-09-30T15:09:43;96420;;;17.9;63.5
68628;BME280;55611;48.602;9.490;2022-09-30T15:11:42;96420;;;18;63.5
68628;BME280;55611;48.602;9.490;2022-09-30T15:14:17;96420;;;17.9;63.5
68628;BME280;55611;48.602;9.490;2022-09-30T15:16:45;96420;;;17.9;63.5
68628;BME280;55611;48.602;9.490;2022-09-30T15:19:16;96420;;;17.8;63.5
68628;BME280;55611;48.602;9.490;2022-09-30T15:21:44;96420;;;17.7;63.5
68628;BME280;55611;48.602;9.490;2022-09-30T15:24:16;96420;;;17.6;63